Time;durP1;ratioP1;P1;durP2;ratioP2;P2;SDS_P1;SDS_P2;PMS_P1;PMS_P2;Temp;Humidity;BMP_temperature;BMP_pressure;BME280_temperature;BME280_humidity;BME280_pressure;Samples;Min_cycle;Max_cycle;Signal;HPM_P1;HPM_P2
2022/07/04 00:00:04;;;;;;;4.28;2.40;;;16.90;99.90;;;;;;5054933;28;20396;-73
2022/07/04 00:02:30;;;;;;;3.17;2.88;;;16.90;99.90;;;;;;5054381;28;20370;-72
2022/07/04 00:04:55;;;;;;;3.10;2.90;;;16.90;99.90;;;;;;5054773;28;20052;-73
2022/07/04 00:07:21;;;;;;;3.25;2.60;;;16.90;99.90;;;;;;5052577;28;20029;-73
2022/07/04 00:09:46;;;;;;;3.25;2.95;;;16.80;99.90;;;;;;5053368;28;20033;-73
2022/07/04 00:12:12;;;;;;;9.98;3.03;;;16.80;99.90;;;;;;5054623;28;20032;-72
2022/07/04 00:14:39;;;;;;;2.90;2.70;;;16.80;99.90;;;;;;5054537;28;20162;-72
2022/07/04 00:17:05;;;;;;;2.58;2.38;;;16.80;99.90;;;;;;5054544;28;20025;-72
2022/07/04 00:19:31;;;;;;;2.95;2.75;;;16.80;99.90;;;;;;5054536;28;20032;-72
2022/07/04 00:21:57;;;;;;;2.90;2.70;;;16.70;99.90;;;;;;5053422;28;20115;-73
2022/07/04 00:24:22;;;;;;;4.43;3.63;;;16.70;99.90;;;;;;5053152;28;20119;-72
2022/07/04 00:26:48;;;;;;;3.28;2.70;;;16.70;99.90;;;;;;5054615;28;20056;-73
2022/07/04 00:29:14;;;;;;;4.00;2.92;;;16.70;99.90;;;;;;5054309;28;20476;-73
2022/07/04 00:31:40;;;;;;;6.93;2.70;;;16.60;99.90;;;;;;5053045;28;20120;-73
2022/07/04 00:34:06;;;;;;;3.45;2.55;;;16.60;99.90;;;;;;5053868;28;20047;-73
2022/07/04 00:36:32;;;;;;;3.33;2.60;;;16.60;99.90;;;;;;5053898;28;20447;-73
2022/07/04 00:38:57;;;;;;;3.33;3.00;;;16.60;99.90;;;;;;5054151;28;20027;-73
2022/07/04 00:41:23;;;;;;;3.92;2.78;;;16.60;99.90;;;;;;5054112;28;20029;-73
2022/07/04 00:44:05;;;;;;;3.85;2.80;;;16.50;99.90;;;;;;5052782;28;20037;-73
2022/07/04 00:46:31;;;;;;;3.88;2.80;;;16.50;99.90;;;;;;5052736;28;20021;-73
2022/07/04 00:48:57;;;;;;;3.40;2.75;;;16.40;99.90;;;;;;5053985;28;20107;-73
2022/07/04 00:51:23;;;;;;;4.60;3.10;;;16.40;99.90;;;;;;5052794;28;20060;-73
2022/07/04 00:53:50;;;;;;;3.22;2.72;;;16.40;99.90;;;;;;5052590;28;20043;-73
2022/07/04 00:56:16;;;;;;;4.20;3.05;;;16.40;99.90;;;;;;5053917;28;20051;-73
2022/07/04 00:58:42;;;;;;;3.20;2.88;;;16.30;99.90;;;;;;5054537;28;20049;-72
2022/07/04 01:01:07;;;;;;;2.88;2.67;;;16.30;99.90;;;;;;5053821;28;20033;-72
2022/07/04 01:03:33;;;;;;;2.67;2.50;;;16.30;99.90;;;;;;5052716;28;20453;-72
2022/07/04 01:06:00;;;;;;;3.13;2.50;;;16.30;99.90;;;;;;5052761;28;20074;-72
2022/07/04 01:08:26;;;;;;;3.78;2.80;;;16.30;99.90;;;;;;5053705;28;20033;-72
2022/07/04 01:10:52;;;;;;;3.40;3.10;;;16.30;99.90;;;;;;5052410;28;20373;-72
2022/07/04 01:13:22;;;;;;;3.00;2.72;;;16.30;99.90;;;;;;5052289;28;20116;-72
2022/07/04 01:15:48;;;;;;;2.75;2.55;;;16.40;99.90;;;;;;5054177;28;20090;-73
2022/07/04 01:18:14;;;;;;;3.08;2.88;;;16.30;99.90;;;;;;5052216;28;20453;-73
2022/07/04 01:20:40;;;;;;;3.22;2.92;;;16.30;99.90;;;;;;5053194;28;20051;-73
2022/07/04 01:23:05;;;;;;;4.18;2.60;;;16.30;99.90;;;;;;5053606;28;20025;-73
2022/07/04 01:25:32;;;;;;;3.38;2.72;;;16.20;99.90;;;;;;5052340;28;20029;-73
2022/07/04 01:27:59;;;;;;;3.13;2.60;;;16.20;99.90;;;;;;5052523;28;20035;-73
2022/07/04 01:30:26;;;;;;;4.68;3.10;;;16.20;99.90;;;;;;5052498;28;20036;-73
2022/07/04 01:32:52;;;;;;;5.10;2.92;;;16.10;99.90;;;;;;5052580;28;20029;-73
2022/07/04 01:35:17;;;;;;;2.88;2.67;;;16.10;99.90;;;;;;5053430;28;20120;-73
2022/07/04 01:37:43;;;;;;;5.10;2.70;;;16.10;99.90;;;;;;5053747;28;20025;-73
2022/07/04 01:40:09;;;;;;;3.33;3.03;;;16.00;99.90;;;;;;5052196;28;20166;-73
2022/07/04 01:42:35;;;;;;;2.45;2.25;;;16.00;99.90;;;;;;5053100;28;20063;-73
2022/07/04 01:45:00;;;;;;;2.88;2.67;;;16.00;99.90;;;;;;5053409;28;20110;-73
2022/07/04 01:47:27;;;;;;;3.85;2.90;;;16.00;99.90;;;;;;5053495;28;20364;-73
2022/07/04 01:49:53;;;;;;;3.33;3.03;;;15.90;99.90;;;;;;5053362;28;20415;-73
2022/07/04 01:52:18;;;;;;;2.90;2.60;;;15.90;99.90;;;;;;5053330;28;20025;-73
2022/07/04 01:54:44;;;;;;;3.40;2.83;;;15.90;99.90;;;;;;5051951;28;20076;-73
2022/07/04 01:57:10;;;;;;;3.42;3.13;;;15.90;99.90;;;;;;5053345;28;20045;-73
2022/07/04 02:02:19;;;;;;;3.10;2.90;;;15.80;99.90;;;;;;5053471;28;20079;-73
2022/07/04 02:04:45;;;;;;;3.60;3.30;;;15.80;99.90;;;;;;5051944;28;20472;-73
2022/07/04 02:07:10;;;;;;;2.78;2.58;;;15.80;99.90;;;;;;5051951;28;20047;-73
2022/07/04 02:09:36;;;;;;;3.17;2.90;;;15.80;99.90;;;;;;5053211;28;20079;-73
2022/07/04 02:14:46;;;;;;;3.10;2.80;;;15.70;99.90;;;;;;5052963;28;20043;-73
2022/07/04 02:17:11;;;;;;;4.32;2.95;;;15.70;99.90;;;;;;5053386;28;20104;-73
2022/07/04 02:19:37;;;;;;;2.80;2.60;;;15.70;99.90;;;;;;5051791;28;20021;-73
2022/07/04 02:22:03;;;;;;;4.95;3.03;;;15.70;99.90;;;;;;5051827;28;20032;-73
2022/07/04 02:24:29;;;;;;;6.68;3.50;;;15.70;99.90;;;;;;5053050;28;20048;-73
2022/07/04 02:26:54;;;;;;;7.85;3.10;;;15.70;99.90;;;;;;5053022;28;20025;-73
2022/07/04 02:29:20;;;;;;;3.08;2.65;;;15.70;99.90;;;;;;5053598;28;20021;-73
2022/07/04 02:31:45;;;;;;;4.07;2.65;;;15.70;99.90;;;;;;5056564;28;20430;-73
2022/07/04 02:34:11;;;;;;;3.50;2.63;;;15.60;99.90;;;;;;5055179;28;20104;-73
2022/07/04 02:36:37;;;;;;;3.28;3.00;;;15.60;99.90;;;;;;5056355;28;20477;-73
2022/07/04 02:39:07;;;;;;;2.63;2.42;;;15.60;99.90;;;;;;5055100;28;20119;-73
2022/07/04 02:41:33;;;;;;;3.08;2.88;;;15.60;99.90;;;;;;5055068;28;20036;-73
2022/07/04 02:44:00;;;;;;;5.93;3.28;;;15.50;99.90;;;;;;5056069;28;20033;-73
2022/07/04 02:46:25;;;;;;;5.78;3.05;;;15.50;99.90;;;;;;5056541;28;20025;-73
2022/07/04 02:48:51;;;;;;;3.58;3.28;;;15.50;99.90;;;;;;5056248;28;20025;-73
2022/07/04 02:51:17;;;;;;;3.55;3.05;;;15.50;99.90;;;;;;5056395;28;20025;-73
2022/07/04 02:53:42;;;;;;;4.00;2.92;;;15.40;99.90;;;;;;5056059;28;20033;-73
2022/07/04 02:56:08;;;;;;;4.07;2.60;;;15.40;99.90;;;;;;5054854;28;20116;-73
2022/07/04 02:58:34;;;;;;;3.38;3.08;;;15.40;99.90;;;;;;5056524;28;20120;-73
2022/07/04 03:01:00;;;;;;;3.35;2.88;;;15.40;99.90;;;;;;5056188;28;20029;-73
2022/07/04 03:03:26;;;;;;;2.85;2.65;;;15.40;99.90;;;;;;5055947;28;20029;-73
2022/07/04 03:05:52;;;;;;;8.25;3.45;;;15.40;99.90;;;;;;5054658;28;20070;-73
2022/07/04 03:08:18;;;;;;;3.78;2.90;;;15.30;99.90;;;;;;5054642;28;20078;-73
2022/07/04 03:10:44;;;;;;;7.97;3.10;;;15.30;99.90;;;;;;5055860;28;20084;-73
2022/07/04 03:13:09;;;;;;;4.57;3.00;;;15.30;99.90;;;;;;5054946;28;20064;-73
2022/07/04 03:15:35;;;;;;;5.65;3.20;;;15.30;99.90;;;;;;5055932;28;20032;-73
2022/07/04 03:18:00;;;;;;;3.55;2.80;;;15.30;99.90;;;;;;5056082;28;20074;-73
2022/07/04 03:20:26;;;;;;;3.17;2.97;;;15.30;99.90;;;;;;5054281;28;20033;-73
2022/07/04 03:22:54;;;;;;;3.13;2.83;;;15.30;99.90;;;;;;5053985;28;20021;-73
2022/07/04 03:25:20;;;;;;;3.00;2.80;;;15.30;99.90;;;;;;5055494;28;20025;-73
2022/07/04 03:27:46;;;;;;;3.88;3.53;;;15.40;99.90;;;;;;5054383;28;20468;-73
2022/07/04 03:30:12;;;;;;;4.03;2.88;;;15.40;99.90;;;;;;5055440;28;20036;-73
2022/07/04 03:32:37;;;;;;;5.82;3.05;;;15.50;99.90;;;;;;5055149;28;20083;-73
2022/07/04 03:35:03;;;;;;;3.47;2.97;;;15.50;99.90;;;;;;5054068;28;20033;-73
2022/07/04 03:37:29;;;;;;;7.28;3.58;;;15.50;99.90;;;;;;5055607;28;20649;-73
2022/07/04 03:39:54;;;;;;;3.17;2.88;;;15.50;99.90;;;;;;5055209;28;20029;-73
2022/07/04 03:42:20;;;;;;;3.25;2.80;;;15.60;99.90;;;;;;5054889;28;20100;-73
2022/07/04 03:44:46;;;;;;;3.97;3.05;;;15.60;99.90;;;;;;5054873;28;20071;-73
2022/07/04 03:47:11;;;;;;;2.95;2.75;;;15.60;99.90;;;;;;5055404;28;20408;-72
2022/07/04 03:49:37;;;;;;;4.93;2.78;;;15.60;99.90;;;;;;5054784;28;20029;-72
2022/07/04 03:52:03;;;;;;;3.10;2.90;;;15.70;99.90;;;;;;5054997;28;20089;-73
2022/07/04 03:54:28;;;;;;;2.78;2.58;;;15.80;99.90;;;;;;5053551;28;20037;-73
2022/07/04 03:56:54;;;;;;;2.85;2.65;;;15.80;99.90;;;;;;5053487;28;20053;-73
2022/07/04 03:59:20;;;;;;;2.85;2.60;;;15.80;99.90;;;;;;5055093;28;20021;-73
2022/07/04 04:01:46;;;;;;;3.00;2.75;;;15.80;99.90;;;;;;5053649;28;20358;-73
2022/07/04 04:06:56;;;;;;;6.00;2.65;;;15.80;99.90;;;;;;5054644;28;20162;-73
2022/07/04 04:09:24;;;;;;;3.03;2.65;;;15.90;99.90;;;;;;5053439;28;20063;-73
2022/07/04 04:11:53;;;;;;;2.87;2.67;;;15.90;99.90;;;;;;5053805;28;20037;-73
2022/07/04 04:14:18;;;;;;;5.45;2.72;;;16.00;99.90;;;;;;5053373;28;20040;-73
2022/07/04 04:16:44;;;;;;;3.10;2.85;;;16.10;99.90;;;;;;5053381;28;20033;-73
2022/07/04 04:19:11;;;;;;;3.65;2.60;;;16.10;99.90;;;;;;5053182;28;20392;-73
2022/07/04 04:21:36;;;;;;;3.70;2.75;;;16.20;99.90;;;;;;5053145;28;20032;-73
2022/07/04 04:24:02;;;;;;;2.63;2.42;;;16.20;99.90;;;;;;5054377;28;20040;-73
2022/07/04 04:26:28;;;;;;;2.47;2.28;;;16.30;99.90;;;;;;5054617;28;20028;-73
2022/07/04 04:28:54;;;;;;;3.22;2.63;;;16.40;99.90;;;;;;5054713;28;20075;-73
2022/07/04 04:31:20;;;;;;;5.97;2.70;;;16.50;99.90;;;;;;5054006;28;20075;-73
2022/07/04 04:33:45;;;;;;;2.90;2.20;;;16.50;99.90;;;;;;5054175;28;20456;-73
2022/07/04 04:36:11;;;;;;;4.97;2.67;;;16.60;99.90;;;;;;5053854;28;20029;-73
2022/07/04 04:38:37;;;;;;;3.60;2.40;;;16.70;99.90;;;;;;5054073;28;20108;-72
2022/07/04 04:41:03;;;;;;;3.03;2.33;;;16.90;99.90;;;;;;5054126;28;20346;-73
2022/07/04 04:43:29;;;;;;;5.57;3.55;;;17.10;99.90;;;;;;5054004;28;20027;-73
2022/07/04 04:45:54;;;;;;;2.70;2.50;;;17.30;99.90;;;;;;5053888;28;20029;-73
2022/07/04 04:48:20;;;;;;;2.85;2.10;;;17.50;99.90;;;;;;5053850;28;20362;-72
2022/07/04 04:50:46;;;;;;;6.60;2.22;;;17.70;99.90;;;;;;5052610;28;20025;-73
2022/07/04 04:53:12;;;;;;;3.63;2.42;;;17.90;99.90;;;;;;5052521;28;20029;-63
2022/07/04 04:55:38;;;;;;;4.97;1.95;;;18.10;99.90;;;;;;5053780;28;20556;-63
2022/07/04 04:58:04;;;;;;;6.53;1.90;;;18.40;99.90;;;;;;5053880;28;20152;-63
2022/07/04 05:00:30;;;;;;;1.90;1.80;;;18.60;99.90;;;;;;5053777;28;20473;-63
2022/07/04 05:02:56;;;;;;;4.72;2.15;;;18.80;99.90;;;;;;5053819;28;20028;-63
2022/07/04 05:05:21;;;;;;;5.28;1.77;;;19.10;99.90;;;;;;5053784;28;20036;-62
2022/07/04 05:07:47;;;;;;;3.60;1.70;;;19.30;99.90;;;;;;5052705;28;20098;-62
2022/07/04 05:10:13;;;;;;;2.10;1.80;;;19.40;99.90;;;;;;5052520;28;20052;-63
2022/07/04 05:12:38;;;;;;;2.20;1.80;;;19.50;99.90;;;;;;5053557;28;20025;-63
2022/07/04 05:15:04;;;;;;;1.85;1.67;;;19.70;99.90;;;;;;5053148;28;20115;-63
2022/07/04 05:17:30;;;;;;;5.43;2.25;;;19.90;99.90;;;;;;5053661;28;20025;-63
2022/07/04 05:19:56;;;;;;;2.88;1.60;;;20.00;99.90;;;;;;5053364;28;20108;-65
2022/07/04 05:22:21;;;;;;;2.95;1.60;;;20.20;99.90;;;;;;5053476;28;20055;-63
2022/07/04 05:24:47;;;;;;;1.63;1.52;;;20.40;99.90;;;;;;5053621;28;20358;-63
2022/07/04 05:27:12;;;;;;;2.03;1.73;;;20.60;99.90;;;;;;5053894;28;20067;-62
2022/07/04 05:29:38;;;;;;;5.18;1.55;;;20.70;99.90;;;;;;5052235;28;20029;-63
2022/07/04 05:32:05;;;;;;;1.70;1.60;;;20.80;99.90;;;;;;5053298;28;20103;-63
2022/07/04 05:34:30;;;;;;;3.45;1.58;;;20.80;99.90;;;;;;5053290;28;20079;-63
2022/07/04 05:36:56;;;;;;;4.10;1.58;;;20.80;99.90;;;;;;5053377;28;20068;-63
2022/07/04 05:39:22;;;;;;;2.30;1.90;;;20.80;99.90;;;;;;5053117;28;20453;-63
2022/07/04 05:41:48;;;;;;;3.22;1.70;;;20.70;99.90;;;;;;5053697;28;20028;-63
2022/07/04 05:44:13;;;;;;;3.83;1.52;;;20.70;99.90;;;;;;5053694;28;20116;-63
2022/07/04 05:46:39;;;;;;;3.65;1.40;;;20.60;99.90;;;;;;5053454;28;20021;-63
2022/07/04 05:49:04;;;;;;;1.75;1.55;;;20.60;99.90;;;;;;5053327;28;20029;-63
2022/07/04 05:51:30;;;;;;;2.30;1.75;;;20.60;99.90;;;;;;5053012;28;20029;-63
2022/07/04 05:53:56;;;;;;;6.20;2.78;;;20.70;99.90;;;;;;5053131;28;20037;-63
2022/07/04 05:56:21;;;;;;;4.93;1.83;;;20.90;99.90;;;;;;5053221;28;20025;-62
2022/07/04 05:58:47;;;;;;;5.53;1.85;;;21.00;99.90;;;;;;5053348;28;20099;-63
2022/07/04 06:01:13;;;;;;;1.63;1.52;;;21.20;99.90;;;;;;5053258;28;20380;-62
2022/07/04 06:03:38;;;;;;;2.90;1.70;;;21.30;99.90;;;;;;5053908;28;20083;-62
2022/07/04 06:06:05;;;;;;;2.38;1.60;;;21.50;99.90;;;;;;5057208;28;20389;-63
2022/07/04 06:08:31;;;;;;;1.73;1.60;;;21.80;99.90;;;;;;5056868;28;20435;-63
2022/07/04 06:10:56;;;;;;;2.80;1.52;;;22.10;99.90;;;;;;5056597;28;20029;-64
2022/07/04 06:13:22;;;;;;;3.50;1.58;;;22.40;99.90;;;;;;5056841;28;20032;-64
2022/07/04 06:15:49;;;;;;;3.78;1.70;;;22.70;99.90;;;;;;5056693;28;20048;-63
2022/07/04 06:18:15;;;;;;;3.28;1.80;;;22.90;99.90;;;;;;5056740;28;20077;-63
2022/07/04 06:20:40;;;;;;;3.55;2.28;;;23.10;99.90;;;;;;5056734;28;20411;-63
2022/07/04 06:23:07;;;;;;;6.50;2.20;;;23.20;99.90;;;;;;5056706;28;20051;-64
2022/07/04 06:25:33;;;;;;;6.90;2.10;;;23.10;99.90;;;;;;5055246;28;20029;-63
2022/07/04 06:27:59;;;;;;;4.10;1.70;;;23.10;99.90;;;;;;5056120;28;20025;-63
2022/07/04 06:30:25;;;;;;;3.80;1.50;;;23.00;99.90;;;;;;5056756;28;20032;-66
2022/07/04 06:32:53;;;;;;;2.20;1.65;;;23.10;99.90;;;;;;5056478;28;20100;-64
2022/07/04 06:38:10;;;;;;;2.83;1.92;;;23.60;99.90;;;;;;5056396;28;20028;-65
2022/07/04 06:40:37;;;;;;;4.35;2.33;;;23.80;99.90;;;;;;5056299;28;20071;-64
2022/07/04 06:43:03;;;;;;;1.90;1.70;;;23.80;99.90;;;;;;5056536;28;20351;-65
2022/07/04 06:45:29;;;;;;;1.60;1.38;;;24.10;99.90;;;;;;5056435;28;20450;-66
2022/07/04 06:47:55;;;;;;;5.90;1.33;;;24.30;99.90;;;;;;5056247;28;20123;-66
2022/07/04 06:50:21;;;;;;;3.85;2.00;;;24.40;99.90;;;;;;5056111;28;20060;-66
2022/07/04 06:52:46;;;;;;;2.63;1.70;;;24.50;99.90;;;;;;5056106;28;20468;-66
2022/07/04 06:55:12;;;;;;;1.65;1.40;;;24.50;99.90;;;;;;5056556;28;20450;-65
2022/07/04 06:57:38;;;;;;;3.63;1.50;;;24.40;99.90;;;;;;5056114;28;20106;-65
2022/07/04 07:00:06;;;;;;;2.65;1.60;;;24.20;99.90;;;;;;5055944;28;20116;-65
2022/07/04 07:02:37;;;;;;;1.50;1.40;;;24.30;99.90;;;;;;5055935;28;20075;-65
2022/07/04 07:05:03;;;;;;;2.05;1.50;;;24.20;99.90;;;;;;5055945;28;20021;-65
2022/07/04 07:07:32;;;;;;;1.40;1.30;;;24.20;99.90;;;;;;5055829;28;20058;-65
2022/07/04 07:09:58;;;;;;;5.53;1.52;;;24.30;99.90;;;;;;5055448;28;20104;-65
2022/07/04 07:12:24;;;;;;;2.70;2.22;;;24.40;99.90;;;;;;5054432;28;20507;-65
2022/07/04 07:14:50;;;;;;;1.88;1.65;;;24.50;99.90;;;;;;5055458;28;20068;-65
2022/07/04 07:17:16;;;;;;;2.22;1.70;;;24.70;99.90;;;;;;5055383;28;20065;-65
2022/07/04 07:19:42;;;;;;;3.80;1.60;;;24.90;99.90;;;;;;5056117;28;20029;-65
2022/07/04 07:22:09;;;;;;;2.65;1.83;;;25.10;99.90;;;;;;5055514;28;20070;-65
2022/07/04 07:24:35;;;;;;;2.33;1.58;;;25.20;99.90;;;;;;5055559;28;20078;-65
2022/07/04 07:27:01;;;;;;;2.38;1.45;;;25.10;99.90;;;;;;5055485;28;20417;-65
2022/07/04 07:29:26;;;;;;;1.90;1.75;;;25.20;99.90;;;;;;5054197;28;20021;-65
2022/07/04 07:31:52;;;;;;;1.17;1.08;;;25.30;99.90;;;;;;5055119;28;20384;-65
2022/07/04 07:34:18;;;;;;;2.63;1.00;;;25.40;99.90;;;;;;5055258;28;20028;-64
2022/07/04 07:36:43;;;;;;;2.00;1.63;;;25.30;99.70;;;;;;5055378;28;20106;-66
2022/07/04 07:39:09;;;;;;;3.75;1.10;;;25.30;99.30;;;;;;5055298;28;20028;-76
2022/07/04 07:41:35;;;;;;;4.28;1.05;;;25.00;98.70;;;;;;5055070;28;20075;-77
2022/07/04 07:44:00;;;;;;;2.60;1.00;;;24.90;99.20;;;;;;5053915;28;20472;-77
2022/07/04 07:46:26;;;;;;;0.88;0.82;;;24.90;98.90;;;;;;5055118;28;20029;-76
2022/07/04 07:48:51;;;;;;;1.75;0.75;;;24.80;98.90;;;;;;5053898;28;20029;-76
2022/07/04 07:51:17;;;;;;;3.20;0.88;;;24.70;98.80;;;;;;5055058;28;20033;-76
2022/07/04 07:53:43;;;;;;;0.75;0.75;;;24.80;98.60;;;;;;5055261;28;20077;-76
2022/07/04 07:56:09;;;;;;;2.10;0.70;;;25.10;98.30;;;;;;5053707;28;20025;-74
2022/07/04 07:58:35;;;;;;;0.68;0.65;;;25.60;97.30;;;;;;5054966;28;20112;-74
2022/07/04 08:01:03;;;;;;;0.88;0.70;;;26.10;95.20;;;;;;5054874;28;20104;-76
2022/07/04 08:06:14;;;;;;;4.05;0.80;;;26.60;92.70;;;;;;5054467;28;20068;-75
2022/07/04 08:08:41;;;;;;;2.05;1.02;;;27.10;91.50;;;;;;5053369;28;20503;-65
2022/07/04 08:11:07;;;;;;;2.05;0.60;;;27.40;89.40;;;;;;5054337;28;20419;-67
2022/07/04 08:13:33;;;;;;;1.27;0.60;;;27.30;89.60;;;;;;5054535;28;20162;-67
2022/07/04 08:15:58;;;;;;;3.58;0.60;;;27.40;88.70;;;;;;5054716;28;20381;-67
2022/07/04 08:18:24;;;;;;;1.42;0.77;;;27.10;86.40;;;;;;5054198;28;20044;-67
2022/07/04 08:20:50;;;;;;;0.80;0.63;;;27.10;87.90;;;;;;5054169;28;20036;-59
2022/07/04 08:23:16;;;;;;;0.57;0.57;;;27.20;87.90;;;;;;5054429;28;20021;-69
2022/07/04 08:25:42;;;;;;;2.15;0.57;;;27.40;86.60;;;;;;5054289;28;20025;-69
2022/07/04 08:28:08;;;;;;;0.60;0.60;;;27.60;84.80;;;;;;5053449;28;20377;-78
2022/07/04 08:30:34;;;;;;;1.17;0.65;;;27.70;84.40;;;;;;5054340;28;20052;-79
2022/07/04 08:32:59;;;;;;;3.55;0.70;;;27.50;82.50;;;;;;5054675;28;20465;-79
2022/07/04 08:35:27;;;;;;;3.63;0.70;;;27.10;82.80;;;;;;5053060;28;20461;-80
2022/07/04 08:37:55;;;;;;;0.65;0.65;;;26.80;84.60;;;;;;5054156;28;20075;-78
2022/07/04 08:40:29;;;;;;;1.15;0.70;;;26.60;85.30;;;;;;5052906;28;20029;-77
2022/07/04 08:42:55;;;;;;;2.15;0.75;;;26.50;86.20;;;;;;5054037;28;20389;-81
2022/07/04 08:45:26;;;;;;;5.18;0.95;;;26.30;86.10;;;;;;5052520;28;20079;-79
2022/07/04 08:47:54;;;;;;;0.80;0.70;;;26.30;87.10;;;;;;5052659;28;20021;-78
2022/07/04 08:50:27;;;;;;;0.75;0.75;;;26.40;87.90;;;;;;5052685;28;20025;-76
2022/07/04 08:53:01;;;;;;;1.55;1.00;;;26.40;87.30;;;;;;5053909;28;20047;-81
2022/07/04 08:58:25;;;;;;;2.85;0.93;;;26.30;87.80;;;;;;5054215;28;20465;-81
2022/07/04 09:00:54;;;;;;;4.85;0.73;;;26.20;89.00;;;;;;5053954;28;20025;-81
2022/07/04 09:03:21;;;;;;;2.00;0.75;;;25.90;89.90;;;;;;5054229;28;20056;-84
2022/07/04 09:05:47;;;;;;;4.82;1.08;;;25.70;89.80;;;;;;5052655;28;20474;-84
2022/07/04 09:08:13;;;;;;;2.20;0.82;;;25.50;90.40;;;;;;5054152;28;20064;-82
2022/07/04 09:10:38;;;;;;;0.70;0.70;;;25.40;91.00;;;;;;5053808;28;20117;-81
2022/07/04 09:13:08;;;;;;;3.30;0.90;;;25.40;91.40;;;;;;5053874;28;20439;-81
2022/07/04 09:15:33;;;;;;;1.08;1.02;;;25.20;91.70;;;;;;5052401;28;20033;-81
2022/07/04 09:18:00;;;;;;;1.15;1.05;;;25.20;92.50;;;;;;5053374;28;20021;-82
2022/07/04 09:20:27;;;;;;;0.80;0.80;;;25.20;92.90;;;;;;5053652;28;20025;-80
2022/07/04 09:22:54;;;;;;;1.13;0.77;;;25.10;93.50;;;;;;5053634;28;20021;-81
2022/07/04 09:25:21;;;;;;;1.55;1.40;;;25.00;93.90;;;;;;5052478;28;20025;-79
2022/07/04 09:27:55;;;;;;;1.00;0.98;;;25.00;94.50;;;;;;5053552;28;20029;-82
2022/07/04 09:30:27;;;;;;;1.88;0.77;;;25.00;95.00;;;;;;5052389;28;20033;-82
2022/07/04 09:33:00;;;;;;;1.88;0.88;;;25.00;98.60;;;;;;5053649;28;20025;-81
2022/07/04 09:35:27;;;;;;;1.02;0.90;;;25.00;99.90;;;;;;5052208;28;20094;-82
2022/07/04 09:38:01;;;;;;;3.35;1.25;;;24.90;99.90;;;;;;5053573;28;20083;-76
2022/07/04 09:43:24;;;;;;;1.75;1.00;;;24.90;99.90;;;;;;5057584;28;20496;-78
2022/07/04 09:45:54;;;;;;;5.28;1.10;;;24.90;99.90;;;;;;5057407;28;20032;-81
2022/07/04 09:48:20;;;;;;;1.30;1.05;;;25.00;99.90;;;;;;5056148;28;20041;-77
2022/07/04 09:50:46;;;;;;;1.67;1.00;;;25.00;99.90;;;;;;5056243;28;20025;-79
2022/07/04 09:53:11;;;;;;;4.25;1.10;;;24.90;99.90;;;;;;5056909;28;20025;-77
2022/07/04 09:55:38;;;;;;;4.28;1.00;;;24.90;99.90;;;;;;5057237;28;20487;-78
2022/07/04 09:58:11;;;;;;;2.00;1.10;;;25.00;99.90;;;;;;5055456;28;20049;-78
2022/07/04 10:00:44;;;;;;;3.35;1.25;;;24.90;99.90;;;;;;5055525;28;20032;-78
2022/07/04 10:03:20;;;;;;;1.77;1.15;;;24.90;99.90;;;;;;5056019;28;20029;-78
2022/07/04 10:05:47;;;;;;;2.85;1.23;;;25.00;99.90;;;;;;5057213;28;20099;-77
2022/07/04 10:08:13;;;;;;;5.63;1.20;;;25.00;99.90;;;;;;5055922;28;20036;-79
2022/07/04 10:10:39;;;;;;;0.80;0.77;;;25.10;99.90;;;;;;5055796;28;20029;-79
2022/07/04 10:13:06;;;;;;;1.98;1.02;;;25.20;99.90;;;;;;5055720;28;20021;-80
2022/07/04 10:15:34;;;;;;;2.60;1.38;;;25.40;99.90;;;;;;5056857;28;20040;-79
2022/07/04 10:18:00;;;;;;;0.98;0.88;;;25.50;99.90;;;;;;5056883;28;20031;-75
2022/07/04 10:20:26;;;;;;;3.45;0.93;;;25.70;99.90;;;;;;5056684;28;20099;-72
2022/07/04 10:22:52;;;;;;;1.17;0.88;;;26.00;99.90;;;;;;5055714;28;20098;-73
2022/07/04 10:25:18;;;;;;;4.20;1.23;;;26.50;99.90;;;;;;5055433;28;20469;-69
2022/07/04 10:27:44;;;;;;;1.60;0.90;;;26.90;99.50;;;;;;5056957;28;20037;-68
2022/07/04 10:30:14;;;;;;;1.15;1.02;;;27.40;96.40;;;;;;5056577;28;20029;-68
2022/07/04 10:32:43;;;;;;;1.50;1.38;;;28.00;93.00;;;;;;5056700;28;20515;-69
2022/07/04 10:35:11;;;;;;;1.25;1.10;;;28.50;90.20;;;;;;5056515;28;20036;-69
2022/07/04 10:37:55;;;;;;;;;;;28.70;90.30;;;;;;5056898;28;20067;-68
2022/07/04 10:40:40;;;;;;;1.17;1.08;;;29.20;85.20;;;;;;5056607;28;19911;-70
2022/07/04 10:43:31;;;;;;;2.13;0.80;;;29.90;79.90;;;;;;5056299;28;20028;-70
2022/07/04 10:46:18;;;;;;;2.22;0.73;;;30.20;76.50;;;;;;5055003;28;20060;-71
2022/07/04 10:48:56;;;;;;;1.95;1.00;;;31.10;73.70;;;;;;5035484;28;20083;-70
2022/07/04 10:51:33;;;;;;;2.30;1.05;;;31.70;69.20;;;;;;5054834;28;20465;-71
2022/07/04 10:53:59;;;;;;;1.08;0.93;;;32.10;66.10;;;;;;5055725;28;20041;-72
2022/07/04 10:56:28;;;;;;;1.27;0.90;;;31.90;65.70;;;;;;5054580;28;20025;-68
2022/07/04 10:59:01;;;;;;;0.80;0.80;;;31.70;65.40;;;;;;5056109;28;20029;-70
2022/07/04 11:01:26;;;;;;;2.00;1.05;;;32.20;64.90;;;;;;5054720;28;20068;-70
2022/07/04 11:03:53;;;;;;;2.08;0.77;;;32.50;64.10;;;;;;5054661;28;20025;-70
2022/07/04 11:06:42;;;;;;;2.28;0.80;;;32.90;61.90;;;;;;5056083;28;20032;-71
2022/07/04 11:09:17;;;;;;;1.60;0.90;;;33.10;59.50;;;;;;5055938;28;20446;-71
2022/07/04 11:11:59;;;;;;;2.22;0.98;;;33.30;57.90;;;;;;5055628;28;20025;-71
2022/07/04 11:14:43;;;;;;;1.10;1.00;;;33.10;57.70;;;;;;5055792;28;20033;-71
2022/07/04 11:17:12;;;;;;;2.15;0.82;;;33.20;56.90;;;;;;5055556;28;20017;-70
2022/07/04 11:19:38;;;;;;;2.08;1.20;;;33.60;57.30;;;;;;5055645;28;20025;-72
2022/07/04 11:22:06;;;;;;;1.05;1.02;;;33.60;55.80;;;;;;5055759;28;20040;-70
2022/07/04 11:24:32;;;;;;;1.00;0.97;;;33.30;56.00;;;;;;5054264;28;20039;-70
2022/07/04 11:26:58;;;;;;;1.67;0.95;;;32.80;56.50;;;;;;5055482;28;20758;-70
2022/07/04 11:29:24;;;;;;;2.10;0.90;;;32.50;56.90;;;;;;5055486;28;20041;-70
2022/07/04 11:31:51;;;;;;;1.15;0.90;;;32.10;57.60;;;;;;5055304;28;20033;-70
2022/07/04 11:34:18;;;;;;;3.25;0.90;;;31.60;58.60;;;;;;5055327;28;20060;-70
2022/07/04 11:36:45;;;;;;;0.98;0.80;;;31.80;59.40;;;;;;5055507;28;20017;-70
2022/07/04 11:39:14;;;;;;;1.58;1.20;;;32.10;59.00;;;;;;5055303;28;20017;-70
2022/07/04 11:47:15;;;;;;;3.95;1.13;;;31.10;60.40;;;;;;5055241;28;20523;-72
2022/07/04 11:49:52;;;;;;;1.52;1.00;;;31.10;59.80;;;;;;5055267;28;20021;-72
2022/07/04 11:52:23;;;;;;;1.58;1.05;;;31.20;59.70;;;;;;5053738;28;20032;-72
2022/07/04 11:54:50;;;;;;;0.80;0.80;;;31.70;59.00;;;;;;5053332;28;20033;-73
2022/07/04 11:57:25;;;;;;;3.08;0.85;;;32.80;57.60;;;;;;5053281;28;20087;-73
2022/07/04 11:59:53;;;;;;;1.00;0.95;;;33.80;56.00;;;;;;5054908;28;20033;-74
2022/07/04 12:02:19;;;;;;;1.33;0.70;;;35.00;52.90;;;;;;5053384;28;20036;-72
2022/07/04 12:04:45;;;;;;;1.95;0.90;;;35.50;50.00;;;;;;5054740;28;20572;-72
2022/07/04 12:07:14;;;;;;;1.83;1.10;;;34.90;49.50;;;;;;5053471;28;20045;-74
2022/07/04 12:09:42;;;;;;;2.08;0.80;;;35.00;50.50;;;;;;5054886;28;20120;-74
2022/07/04 12:12:08;;;;;;;1.38;0.75;;;35.40;50.10;;;;;;5054679;28;20033;-74
2022/07/04 12:14:34;;;;;;;1.63;1.17;;;35.50;50.30;;;;;;5054537;28;20039;-74
2022/07/04 12:17:10;;;;;;;3.78;1.30;;;36.10;50.30;;;;;;5053223;28;20051;-73
2022/07/04 12:19:36;;;;;;;1.00;0.75;;;36.70;48.80;;;;;;5054627;28;20416;-73
2022/07/04 12:22:02;;;;;;;0.70;0.70;;;36.80;47.50;;;;;;5054443;28;20025;-73
2022/07/04 12:24:28;;;;;;;0.80;0.70;;;36.50;46.10;;;;;;5054466;28;20037;-76
2022/07/04 12:26:54;;;;;;;1.08;1.08;;;35.70;46.40;;;;;;5054419;28;20354;-76
2022/07/04 12:29:23;;;;;;;4.10;1.40;;;35.70;46.90;;;;;;5053965;28;20032;-75
2022/07/04 12:31:53;;;;;;;1.45;1.20;;;36.20;47.70;;;;;;5053027;28;20064;-76
2022/07/04 12:34:19;;;;;;;1.02;0.75;;;36.90;46.70;;;;;;5054332;28;20120;-74
2022/07/04 12:36:53;;;;;;;1.40;0.93;;;37.00;46.60;;;;;;5054205;28;20029;-77
2022/07/04 12:39:33;;;;;;;1.08;0.90;;;37.50;45.90;;;;;;5053834;28;20430;-77
2022/07/04 12:42:12;;;;;;;1.10;1.00;;;37.80;45.60;;;;;;5054256;28;20025;-75
2022/07/04 12:44:40;;;;;;;0.93;0.88;;;37.60;45.30;;;;;;5054182;28;20028;-74
2022/07/04 12:47:06;;;;;;;0.80;0.80;;;36.40;45.90;;;;;;5052862;28;20127;-74
2022/07/04 12:49:33;;;;;;;1.55;1.30;;;35.90;47.70;;;;;;5053982;28;20025;-76
2022/07/04 12:52:10;;;;;;;2.05;1.00;;;36.20;47.60;;;;;;5054021;28;20155;-74
2022/07/04 12:54:38;;;;;;;0.98;0.82;;;36.30;46.00;;;;;;5053226;28;20373;-76
2022/07/04 12:57:12;;;;;;;2.67;1.13;;;36.00;46.00;;;;;;5053844;28;20136;-75
2022/07/04 12:59:39;;;;;;;3.05;1.13;;;35.30;46.90;;;;;;5053922;28;20021;-74
2022/07/04 13:02:05;;;;;;;1.23;1.10;;;34.70;48.00;;;;;;5053891;28;20036;-79
2022/07/04 13:04:32;;;;;;;0.80;0.70;;;34.50;48.70;;;;;;5053892;28;20119;-79
2022/07/04 13:06:59;;;;;;;2.50;0.80;;;34.50;48.70;;;;;;5053936;28;20025;-80
2022/07/04 13:09:25;;;;;;;0.85;0.80;;;34.60;48.40;;;;;;5054625;28;20104;-84
2022/07/04 13:14:35;;;;;;;0.77;0.70;;;34.90;47.30;;;;;;5053148;28;20480;-79